sensor_id;sensor_type;location;lat;lon;timestamp;temperature;humidity
12967;DHT22;6548;49.996;8.238;2022-07-23T00:00:54;22.40;99.90
12967;DHT22;6548;49.996;8.238;2022-07-23T00:03:19;22.40;99.90
12967;DHT22;6548;49.996;8.238;2022-07-23T00:05:45;22.40;99.90
12967;DHT22;6548;49.996;8.238;2022-07-23T00:08:11;22.30;99.90
12967;DHT22;6548;49.996;8.238;2022-07-23T00:10:37;22.30;99.90
12967;DHT22;6548;49.996;8.238;2022-07-23T00:13:02;22.30;99.90
12967;DHT22;6548;49.996;8.238;2022-07-23T00:15:29;22.30;99.90
12967;DHT22;6548;49.996;8.238;2022-07-23T00:17:54;22.20;99.90
12967;DHT22;6548;49.996;8.238;2022-07-23T00:20:20;22.20;99.90
12967;DHT22;6548;49.996;8.238;2022-07-23T00:22:47;22.20;99.90
12967;DHT22;6548;49.996;8.238;2022-07-23T00:25:13;22.10;99.90
12967;DHT22;6548;49.996;8.238;2022-07-23T00:27:38;22.10;99.90
12967;DHT22;6548;49.996;8.238;2022-07-23T00:30:04;22.10;99.90
12967;DHT22;6548;49.996;8.238;2022-07-23T00:32:30;22.00;99.90
12967;DHT22;6548;49.996;8.238;2022-07-23T00:34:56;21.90;99.90
12967;DHT22;6548;49.996;8.238;2022-07-23T00:37:21;21.90;99.90
12967;DHT22;6548;49.996;8.238;2022-07-23T00:39:47;21.90;99.90
12967;DHT22;6548;49.996;8.238;2022-07-23T00:42:12;21.90;99.90
12967;DHT22;6548;49.996;8.238;2022-07-23T00:44:38;21.80;99.90
12967;DHT22;6548;49.996;8.238;2022-07-23T00:47:03;21.80;99.90
12967;DHT22;6548;49.996;8.238;2022-07-23T00:49:31;21.70;99.90
12967;DHT22;6548;49.996;8.238;2022-07-23T00:51:57;21.70;99.90
12967;DHT22;6548;49.996;8.238;2022-07-23T00:54:25;21.70;99.90
12967;DHT22;6548;49.996;8.238;2022-07-23T00:56:51;21.70;99.90
12967;DHT22;6548;49.996;8.238;2022-07-23T00:59:17;21.70;99.90
12967;DHT22;6548;49.996;8.238;2022-07-23T01:01:42;21.70;99.90
12967;DHT22;6548;49.996;8.238;2022-07-23T01:04:09;21.70;99.90
12967;DHT22;6548;49.996;8.238;2022-07-23T01:06:37;21.70;99.90
12967;DHT22;6548;49.996;8.238;2022-07-23T01:09:05;21.60;99.90
12967;DHT22;6548;49.996;8.238;2022-07-23T01:11:36;21.60;99.90
12967;DHT22;6548;49.996;8.238;2022-07-23T01:14:28;21.50;99.90
12967;DHT22;6548;49.996;8.238;2022-07-23T01:16:54;21.20;99.90
12967;DHT22;6548;49.996;8.238;2022-07-23T01:19:19;20.90;99.90
12967;DHT22;6548;49.996;8.238;2022-07-23T01:21:50;20.70;99.90
12967;DHT22;6548;49.996;8.238;2022-07-23T01:24:17;20.50;99.90
12967;DHT22;6548;49.996;8.238;2022-07-23T01:26:46;20.40;99.90
12967;DHT22;6548;49.996;8.238;2022-07-23T01:29:11;20.30;99.90
12967;DHT22;6548;49.996;8.238;2022-07-23T01:31:37;20.20;99.90
12967;DHT22;6548;49.996;8.238;2022-07-23T01:34:03;20.10;99.90
12967;DHT22;6548;49.996;8.238;2022-07-23T01:36:29;20.10;99.90
12967;DHT22;6548;49.996;8.238;2022-07-23T01:38:55;20.00;99.90
12967;DHT22;6548;49.996;8.238;2022-07-23T01:41:21;20.90;99.90
12967;DHT22;6548;49.996;8.238;2022-07-23T01:43:47;20.00;99.90
12967;DHT22;6548;49.996;8.238;2022-07-23T01:46:12;20.00;99.90
12967;DHT22;6548;49.996;8.238;2022-07-23T01:48:38;19.90;99.90
12967;DHT22;6548;49.996;8.238;2022-07-23T01:51:04;20.00;99.90
12967;DHT22;6548;49.996;8.238;2022-07-23T01:53:29;20.00;99.90
12967;DHT22;6548;49.996;8.238;2022-07-23T01:55:57;20.00;99.90
12967;DHT22;6548;49.996;8.238;2022-07-23T01:58:23;20.00;99.90
12967;DHT22;6548;49.996;8.238;2022-07-23T02:00:48;19.90;99.90
12967;DHT22;6548;49.996;8.238;2022-07-23T02:03:14;19.90;99.90
12967;DHT22;6548;49.996;8.238;2022-07-23T02:05:39;19.80;99.90
12967;DHT22;6548;49.996;8.238;2022-07-23T02:08:05;19.80;99.90
12967;DHT22;6548;49.996;8.238;2022-07-23T02:10:31;19.80;99.90
12967;DHT22;6548;49.996;8.238;2022-07-23T02:12:56;19.80;99.90
12967;DHT22;6548;49.996;8.238;2022-07-23T02:15:22;19.80;99.90
12967;DHT22;6548;49.996;8.238;2022-07-23T02:17:48;19.80;99.90
12967;DHT22;6548;49.996;8.238;2022-07-23T02:20:14;19.80;99.90
12967;DHT22;6548;49.996;8.238;2022-07-23T02:22:40;19.90;99.90
12967;DHT22;6548;49.996;8.238;2022-07-23T02:25:07;19.80;99.90
12967;DHT22;6548;49.996;8.238;2022-07-23T02:27:33;19.90;99.90
12967;DHT22;6548;49.996;8.238;2022-07-23T02:29:59;20.00;99.90
12967;DHT22;6548;49.996;8.238;2022-07-23T02:32:25;20.00;99.90
12967;DHT22;6548;49.996;8.238;2022-07-23T02:34:51;19.90;99.90
12967;DHT22;6548;49.996;8.238;2022-07-23T02:37:17;19.90;99.90
12967;DHT22;6548;49.996;8.238;2022-07-23T02:39:43;19.80;99.90
12967;DHT22;6548;49.996;8.238;2022-07-23T02:42:08;19.80;99.90
12967;DHT22;6548;49.996;8.238;2022-07-23T02:44:34;19.80;99.90
12967;DHT22;6548;49.996;8.238;2022-07-23T02:47:00;19.80;99.90
12967;DHT22;6548;49.996;8.238;2022-07-23T02:49:25;19.80;99.90
12967;DHT22;6548;49.996;8.238;2022-07-23T02:51:51;19.80;99.90
12967;DHT22;6548;49.996;8.238;2022-07-23T02:54:17;19.80;99.90
12967;DHT22;6548;49.996;8.238;2022-07-23T02:56:42;19.80;99.90
12967;DHT22;6548;49.996;8.238;2022-07-23T02:59:08;19.80;99.90
12967;DHT22;6548;49.996;8.238;2022-07-23T03:01:34;19.90;99.90
12967;DHT22;6548;49.996;8.238;2022-07-23T03:03:59;19.90;99.90
12967;DHT22;6548;49.996;8.238;2022-07-23T03:06:25;19.80;99.90
12967;DHT22;6548;49.996;8.238;2022-07-23T03:08:50;19.80;99.90
12967;DHT22;6548;49.996;8.238;2022-07-23T03:11:16;19.70;99.90
12967;DHT22;6548;49.996;8.238;2022-07-23T03:13:42;19.70;99.90
12967;DHT22;6548;49.996;8.238;2022-07-23T03:16:08;19.70;99.90
12967;DHT22;6548;49.996;8.238;2022-07-23T03:18:34;19.60;99.90
12967;DHT22;6548;49.996;8.238;2022-07-23T03:20:59;19.60;99.90
12967;DHT22;6548;49.996;8.238;2022-07-23T03:23:25;19.60;99.90
12967;DHT22;6548;49.996;8.238;2022-07-23T03:25:51;19.60;99.90
12967;DHT22;6548;49.996;8.238;2022-07-23T03:28:17;19.60;99.90
12967;DHT22;6548;49.996;8.238;2022-07-23T03:30:44;19.60;99.90
12967;DHT22;6548;49.996;8.238;2022-07-23T03:33:12;19.60;99.90
12967;DHT22;6548;49.996;8.238;2022-07-23T03:35:37;19.70;99.90
12967;DHT22;6548;49.996;8.238;2022-07-23T03:38:03;19.70;99.90
12967;DHT22;6548;49.996;8.238;2022-07-23T03:40:29;19.70;99.90
12967;DHT22;6548;49.996;8.238;2022-07-23T03:42:54;19.70;99.90
12967;DHT22;6548;49.996;8.238;2022-07-23T03:45:20;19.70;99.90
12967;DHT22;6548;49.996;8.238;2022-07-23T03:47:45;19.70;99.90
12967;DHT22;6548;49.996;8.238;2022-07-23T03:50:11;19.70;99.90
12967;DHT22;6548;49.996;8.238;2022-07-23T03:52:36;19.70;99.90
12967;DHT22;6548;49.996;8.238;2022-07-23T03:55:03;19.70;99.90
12967;DHT22;6548;49.996;8.238;2022-07-23T03:57:29;19.70;99.90
12967;DHT22;6548;49.996;8.238;2022-07-23T03:59:54;19.70;99.90
12967;DHT22;6548;49.996;8.238;2022-07-23T04:02:20;19.70;99.90
12967;DHT22;6548;49.996;8.238;2022-07-23T04:04:46;19.60;99.90
12967;DHT22;6548;49.996;8.238;2022-07-23T04:07:12;19.60;99.90
12967;DHT22;6548;49.996;8.238;2022-07-23T04:09:38;19.60;99.90
12967;DHT22;6548;49.996;8.238;2022-07-23T04:12:06;19.60;99.90
12967;DHT22;6548;49.996;8.238;2022-07-23T04:14:32;19.50;99.90
12967;DHT22;6548;49.996;8.238;2022-07-23T04:16:57;19.50;99.90
12967;DHT22;6548;49.996;8.238;2022-07-23T04:19:23;19.50;99.90
12967;DHT22;6548;49.996;8.238;2022-07-23T04:21:48;19.50;99.90
12967;DHT22;6548;49.996;8.238;2022-07-23T04:24:14;19.50;99.90
12967;DHT22;6548;49.996;8.238;2022-07-23T04:26:39;19.60;99.90
12967;DHT22;6548;49.996;8.238;2022-07-23T04:29:05;19.60;99.90
12967;DHT22;6548;49.996;8.238;2022-07-23T04:31:30;19.70;99.90
12967;DHT22;6548;49.996;8.238;2022-07-23T04:33:56;19.70;99.90
12967;DHT22;6548;49.996;8.238;2022-07-23T04:36:21;19.70;99.90
12967;DHT22;6548;49.996;8.238;2022-07-23T04:38:47;19.70;99.90
12967;DHT22;6548;49.996;8.238;2022-07-23T04:41:13;19.70;99.90
12967;DHT22;6548;49.996;8.238;2022-07-23T04:43:38;19.80;99.90
12967;DHT22;6548;49.996;8.238;2022-07-23T04:46:04;19.80;99.90
12967;DHT22;6548;49.996;8.238;2022-07-23T04:48:30;19.70;99.90
12967;DHT22;6548;49.996;8.238;2022-07-23T04:50:55;19.70;99.90
12967;DHT22;6548;49.996;8.238;2022-07-23T04:53:21;19.80;99.90
12967;DHT22;6548;49.996;8.238;2022-07-23T04:55:46;19.80;99.90
12967;DHT22;6548;49.996;8.238;2022-07-23T04:58:12;19.80;99.90
12967;DHT22;6548;49.996;8.238;2022-07-23T05:00:37;20.60;99.90
12967;DHT22;6548;49.996;8.238;2022-07-23T05:03:03;19.80;99.90
12967;DHT22;6548;49.996;8.238;2022-07-23T05:05:29;19.80;99.90
12967;DHT22;6548;49.996;8.238;2022-07-23T05:07:54;19.70;99.90
12967;DHT22;6548;49.996;8.238;2022-07-23T05:10:20;19.70;99.90
12967;DHT22;6548;49.996;8.238;2022-07-23T05:12:45;19.70;99.90
12967;DHT22;6548;49.996;8.238;2022-07-23T05:15:11;19.80;99.90
12967;DHT22;6548;49.996;8.238;2022-07-23T05:17:36;19.90;99.90
12967;DHT22;6548;49.996;8.238;2022-07-23T05:20:03;19.90;99.90
12967;DHT22;6548;49.996;8.238;2022-07-23T05:22:29;19.90;99.90
12967;DHT22;6548;49.996;8.238;2022-07-23T05:24:54;19.80;99.90
12967;DHT22;6548;49.996;8.238;2022-07-23T05:27:21;19.90;99.90
12967;DHT22;6548;49.996;8.238;2022-07-23T05:29:46;20.00;99.90
12967;DHT22;6548;49.996;8.238;2022-07-23T05:32:12;20.00;99.90
12967;DHT22;6548;49.996;8.238;2022-07-23T05:34:37;20.00;99.90
12967;DHT22;6548;49.996;8.238;2022-07-23T05:37:03;20.00;99.90
12967;DHT22;6548;49.996;8.238;2022-07-23T05:39:28;20.10;99.90
12967;DHT22;6548;49.996;8.238;2022-07-23T05:41:54;20.20;99.90
12967;DHT22;6548;49.996;8.238;2022-07-23T05:44:19;20.20;99.90
12967;DHT22;6548;49.996;8.238;2022-07-23T05:46:46;20.10;99.90
12967;DHT22;6548;49.996;8.238;2022-07-23T05:49:11;20.10;99.90
12967;DHT22;6548;49.996;8.238;2022-07-23T05:51:37;20.20;99.90
12967;DHT22;6548;49.996;8.238;2022-07-23T05:54:02;20.30;99.90
12967;DHT22;6548;49.996;8.238;2022-07-23T05:56:28;20.40;99.90
12967;DHT22;6548;49.996;8.238;2022-07-23T05:58:53;20.50;99.90
12967;DHT22;6548;49.996;8.238;2022-07-23T06:01:19;20.60;99.90
12967;DHT22;6548;49.996;8.238;2022-07-23T06:03:45;20.80;99.90
12967;DHT22;6548;49.996;8.238;2022-07-23T06:06:10;20.90;99.90
12967;DHT22;6548;49.996;8.238;2022-07-23T06:08:36;21.10;99.90
12967;DHT22;6548;49.996;8.238;2022-07-23T06:11:01;21.30;99.90
12967;DHT22;6548;49.996;8.238;2022-07-23T06:13:27;21.50;99.90
12967;DHT22;6548;49.996;8.238;2022-07-23T06:15:53;21.70;99.90
12967;DHT22;6548;49.996;8.238;2022-07-23T06:18:18;21.80;99.90
12967;DHT22;6548;49.996;8.238;2022-07-23T06:20:44;22.10;99.90
12967;DHT22;6548;49.996;8.238;2022-07-23T06:23:09;22.30;99.90
12967;DHT22;6548;49.996;8.238;2022-07-23T06:25:35;22.40;99.90
12967;DHT22;6548;49.996;8.238;2022-07-23T06:28:01;22.90;99.90
12967;DHT22;6548;49.996;8.238;2022-07-23T06:30:26;23.20;99.90
12967;DHT22;6548;49.996;8.238;2022-07-23T06:32:52;23.50;99.90
12967;DHT22;6548;49.996;8.238;2022-07-23T06:35:17;23.90;99.90
12967;DHT22;6548;49.996;8.238;2022-07-23T06:37:43;23.50;99.90
12967;DHT22;6548;49.996;8.238;2022-07-23T06:40:09;24.00;99.90
12967;DHT22;6548;49.996;8.238;2022-07-23T06:42:34;23.90;99.90
12967;DHT22;6548;49.996;8.238;2022-07-23T06:45:03;24.10;99.90
12967;DHT22;6548;49.996;8.238;2022-07-23T06:47:29;24.90;99.90
12967;DHT22;6548;49.996;8.238;2022-07-23T06:49:54;25.20;99.90
12967;DHT22;6548;49.996;8.238;2022-07-23T06:52:20;25.70;99.90
12967;DHT22;6548;49.996;8.238;2022-07-23T06:54:45;25.60;99.90
12967;DHT22;6548;49.996;8.238;2022-07-23T06:57:11;25.50;99.90
12967;DHT22;6548;49.996;8.238;2022-07-23T06:59:37;26.40;99.90
12967;DHT22;6548;49.996;8.238;2022-07-23T07:02:06;26.10;99.90
12967;DHT22;6548;49.996;8.238;2022-07-23T07:04:32;25.60;99.90
12967;DHT22;6548;49.996;8.238;2022-07-23T07:06:57;26.00;99.90
12967;DHT22;6548;49.996;8.238;2022-07-23T07:09:23;26.80;99.90
12967;DHT22;6548;49.996;8.238;2022-07-23T07:11:49;27.70;99.90
12967;DHT22;6548;49.996;8.238;2022-07-23T07:14:14;27.90;99.90
12967;DHT22;6548;49.996;8.238;2022-07-23T07:16:40;27.30;99.90
12967;DHT22;6548;49.996;8.238;2022-07-23T07:19:05;27.50;99.90
12967;DHT22;6548;49.996;8.238;2022-07-23T07:21:31;26.90;99.90
12967;DHT22;6548;49.996;8.238;2022-07-23T07:23:56;27.50;99.90
12967;DHT22;6548;49.996;8.238;2022-07-23T07:26:22;26.30;99.90
12967;DHT22;6548;49.996;8.238;2022-07-23T07:28:47;26.00;99.90
12967;DHT22;6548;49.996;8.238;2022-07-23T07:31:13;26.10;99.90
12967;DHT22;6548;49.996;8.238;2022-07-23T07:33:39;26.20;99.90
12967;DHT22;6548;49.996;8.238;2022-07-23T07:36:04;26.80;99.90
12967;DHT22;6548;49.996;8.238;2022-07-23T07:38:30;26.10;99.90
12967;DHT22;6548;49.996;8.238;2022-07-23T07:40:55;25.40;99.90
12967;DHT22;6548;49.996;8.238;2022-07-23T07:43:21;26.40;99.90
12967;DHT22;6548;49.996;8.238;2022-07-23T07:45:46;26.80;99.90
12967;DHT22;6548;49.996;8.238;2022-07-23T07:48:12;26.80;99.90
12967;DHT22;6548;49.996;8.238;2022-07-23T07:50:38;26.20;99.90
12967;DHT22;6548;49.996;8.238;2022-07-23T07:53:03;25.00;99.90
12967;DHT22;6548;49.996;8.238;2022-07-23T07:55:29;25.90;99.90
12967;DHT22;6548;49.996;8.238;2022-07-23T07:57:54;26.80;99.90
12967;DHT22;6548;49.996;8.238;2022-07-23T08:00:20;28.40;99.90
12967;DHT22;6548;49.996;8.238;2022-07-23T08:02:48;28.10;99.90
12967;DHT22;6548;49.996;8.238;2022-07-23T08:05:18;28.20;99.90
12967;DHT22;6548;49.996;8.238;2022-07-23T08:07:43;28.60;99.90
12967;DHT22;6548;49.996;8.238;2022-07-23T08:10:09;28.50;99.90
12967;DHT22;6548;49.996;8.238;2022-07-23T08:12:47;27.80;99.90
12967;DHT22;6548;49.996;8.238;2022-07-23T08:15:15;28.00;99.90
12967;DHT22;6548;49.996;8.238;2022-07-23T08:17:41;28.70;99.90
12967;DHT22;6548;49.996;8.238;2022-07-23T08:20:08;28.90;99.90
12967;DHT22;6548;49.996;8.238;2022-07-23T08:22:51;29.30;99.90
12967;DHT22;6548;49.996;8.238;2022-07-23T08:25:29;29.30;99.90
12967;DHT22;6548;49.996;8.238;2022-07-23T08:27:55;29.60;99.90
12967;DHT22;6548;49.996;8.238;2022-07-23T08:30:21;29.30;99.90
12967;DHT22;6548;49.996;8.238;2022-07-23T08:32:51;28.70;99.90
12967;DHT22;6548;49.996;8.238;2022-07-23T08:35:21;27.70;99.90
12967;DHT22;6548;49.996;8.238;2022-07-23T08:37:47;28.10;99.90
12967;DHT22;6548;49.996;8.238;2022-07-23T08:40:12;28.20;99.90
12967;DHT22;6548;49.996;8.238;2022-07-23T08:42:38;28.90;99.90
12967;DHT22;6548;49.996;8.238;2022-07-23T08:45:07;26.70;99.90
12967;DHT22;6548;49.996;8.238;2022-07-23T08:47:33;27.30;99.90
12967;DHT22;6548;49.996;8.238;2022-07-23T08:49:59;26.50;99.90
12967;DHT22;6548;49.996;8.238;2022-07-23T08:52:25;26.00;99.90
12967;DHT22;6548;49.996;8.238;2022-07-23T08:54:51;27.30;99.90
12967;DHT22;6548;49.996;8.238;2022-07-23T08:57:18;27.70;99.90
12967;DHT22;6548;49.996;8.238;2022-07-23T08:59:43;28.90;99.90
12967;DHT22;6548;49.996;8.238;2022-07-23T09:02:09;29.70;99.90
12967;DHT22;6548;49.996;8.238;2022-07-23T09:04:35;30.40;99.90
12967;DHT22;6548;49.996;8.238;2022-07-23T09:07:02;30.80;99.90
12967;DHT22;6548;49.996;8.238;2022-07-23T09:09:27;30.00;99.90
12967;DHT22;6548;49.996;8.238;2022-07-23T09:12:07;30.20;99.90
12967;DHT22;6548;49.996;8.238;2022-07-23T09:14:44;30.30;99.90
12967;DHT22;6548;49.996;8.238;2022-07-23T09:17:16;30.00;99.90
12967;DHT22;6548;49.996;8.238;2022-07-23T09:19:43;31.40;99.90
12967;DHT22;6548;49.996;8.238;2022-07-23T09:22:25;31.20;99.90
12967;DHT22;6548;49.996;8.238;2022-07-23T09:25:09;31.00;99.90
12967;DHT22;6548;49.996;8.238;2022-07-23T09:27:55;31.30;99.90
12967;DHT22;6548;49.996;8.238;2022-07-23T09:30:22;31.70;99.90
12967;DHT22;6548;49.996;8.238;2022-07-23T09:38:16;31.20;99.90
12967;DHT22;6548;49.996;8.238;2022-07-23T09:40:42;31.20;99.90
12967;DHT22;6548;49.996;8.238;2022-07-23T09:43:09;31.30;99.90
12967;DHT22;6548;49.996;8.238;2022-07-23T09:45:35;32.30;99.90
12967;DHT22;6548;49.996;8.238;2022-07-23T09:48:11;31.80;99.90
12967;DHT22;6548;49.996;8.238;2022-07-23T09:50:38;32.40;99.90
12967;DHT22;6548;49.996;8.238;2022-07-23T09:53:04;30.40;99.90
12967;DHT22;6548;49.996;8.238;2022-07-23T09:55:34;31.30;99.90
12967;DHT22;6548;49.996;8.238;2022-07-23T09:58:02;31.30;99.90
12967;DHT22;6548;49.996;8.238;2022-07-23T10:00:29;32.00;99.90
12967;DHT22;6548;49.996;8.238;2022-07-23T10:02:57;32.60;99.90
12967;DHT22;6548;49.996;8.238;2022-07-23T10:05:24;32.80;99.90
12967;DHT22;6548;49.996;8.238;2022-07-23T10:07:51;32.20;99.90
12967;DHT22;6548;49.996;8.238;2022-07-23T10:10:17;31.70;99.90
12967;DHT22;6548;49.996;8.238;2022-07-23T10:12:47;31.10;99.90
12967;DHT22;6548;49.996;8.238;2022-07-23T10:15:28;31.00;99.90
12967;DHT22;6548;49.996;8.238;2022-07-23T10:17:54;30.60;99.90
12967;DHT22;6548;49.996;8.238;2022-07-23T10:20:20;30.90;99.90
12967;DHT22;6548;49.996;8.238;2022-07-23T10:23:17;31.60;99.90
12967;DHT22;6548;49.996;8.238;2022-07-23T10:31:31;30.50;99.90
12967;DHT22;6548;49.996;8.238;2022-07-23T10:34:09;30.90;99.90
12967;DHT22;6548;49.996;8.238;2022-07-23T10:39:22;31.60;99.90
12967;DHT22;6548;49.996;8.238;2022-07-23T10:41:50;31.90;99.90
12967;DHT22;6548;49.996;8.238;2022-07-23T10:44:22;32.80;99.90
12967;DHT22;6548;49.996;8.238;2022-07-23T10:47:03;33.20;99.90
12967;DHT22;6548;49.996;8.238;2022-07-23T10:49:37;33.40;99.90
12967;DHT22;6548;49.996;8.238;2022-07-23T10:52:16;34.10;99.90
12967;DHT22;6548;49.996;8.238;2022-07-23T10:54:43;34.80;99.90
12967;DHT22;6548;49.996;8.238;2022-07-23T10:57:10;34.30;99.90
12967;DHT22;6548;49.996;8.238;2022-07-23T11:02:31;35.10;99.90
12967;DHT22;6548;49.996;8.238;2022-07-23T11:05:23;35.60;99.90
12967;DHT22;6548;49.996;8.238;2022-07-23T11:13:25;33.00;99.90
12967;DHT22;6548;49.996;8.238;2022-07-23T11:24:12;33.60;99.90
12967;DHT22;6548;49.996;8.238;2022-07-23T11:32:09;36.20;99.90
12967;DHT22;6548;49.996;8.238;2022-07-23T11:34:45;35.60;98.50
12967;DHT22;6548;49.996;8.238;2022-07-23T11:37:27;34.60;98.60
12967;DHT22;6548;49.996;8.238;2022-07-23T11:39:57;34.40;98.70
12967;DHT22;6548;49.996;8.238;2022-07-23T11:42:23;34.20;99.90
12967;DHT22;6548;49.996;8.238;2022-07-23T11:44:50;34.30;98.80
12967;DHT22;6548;49.996;8.238;2022-07-23T11:47:24;33.30;99.90
12967;DHT22;6548;49.996;8.238;2022-07-23T11:50:01;33.80;99.90
12967;DHT22;6548;49.996;8.238;2022-07-23T11:52:27;34.40;99.50
12967;DHT22;6548;49.996;8.238;2022-07-23T11:54:55;34.30;98.70
12967;DHT22;6548;49.996;8.238;2022-07-23T11:57:31;34.70;98.40
12967;DHT22;6548;49.996;8.238;2022-07-23T12:00:00;35.00;97.40
12967;DHT22;6548;49.996;8.238;2022-07-23T12:02:26;33.30;98.10
12967;DHT22;6548;49.996;8.238;2022-07-23T12:04:52;32.60;98.90
12967;DHT22;6548;49.996;8.238;2022-07-23T12:07:36;33.20;98.70
12967;DHT22;6548;49.996;8.238;2022-07-23T12:10:15;33.90;98.60
12967;DHT22;6548;49.996;8.238;2022-07-23T12:15:13;34.10;97.40
12967;DHT22;6548;49.996;8.238;2022-07-23T12:17:41;34.40;98.10
12967;DHT22;6548;49.996;8.238;2022-07-23T12:20:10;34.30;96.90
12967;DHT22;6548;49.996;8.238;2022-07-23T12:22:38;35.40;96.80
12967;DHT22;6548;49.996;8.238;2022-07-23T12:27:37;35.60;95.90
12967;DHT22;6548;49.996;8.238;2022-07-23T12:30:22;35.90;95.40
12967;DHT22;6548;49.996;8.238;2022-07-23T12:32:51;35.40;95.10
12967;DHT22;6548;49.996;8.238;2022-07-23T12:35:18;35.80;95.80
12967;DHT22;6548;49.996;8.238;2022-07-23T12:37:46;35.80;94.70
12967;DHT22;6548;49.996;8.238;2022-07-23T12:40:32;35.50;95.10
12967;DHT22;6548;49.996;8.238;2022-07-23T12:43:07;35.50;95.10
12967;DHT22;6548;49.996;8.238;2022-07-23T12:45:50;35.70;94.60
12967;DHT22;6548;49.996;8.238;2022-07-23T12:48:22;34.90;95.10
12967;DHT22;6548;49.996;8.238;2022-07-23T12:50:50;35.20;94.30
12967;DHT22;6548;49.996;8.238;2022-07-23T12:53:41;35.10;94.10
12967;DHT22;6548;49.996;8.238;2022-07-23T12:56:08;36.20;94.20
12967;DHT22;6548;49.996;8.238;2022-07-23T12:58:51;37.10;92.50
12967;DHT22;6548;49.996;8.238;2022-07-23T13:06:24;35.70;92.60
12967;DHT22;6548;49.996;8.238;2022-07-23T13:08:50;34.20;93.50
12967;DHT22;6548;49.996;8.238;2022-07-23T13:11:15;33.20;94.10
12967;DHT22;6548;49.996;8.238;2022-07-23T13:13:41;33.20;94.70
12967;DHT22;6548;49.996;8.238;2022-07-23T13:16:07;32.70;95.10
12967;DHT22;6548;49.996;8.238;2022-07-23T13:18:32;31.80;95.80
12967;DHT22;6548;49.996;8.238;2022-07-23T13:20:58;31.00;96.70
12967;DHT22;6548;49.996;8.238;2022-07-23T13:23:24;32.60;96.40
12967;DHT22;6548;49.996;8.238;2022-07-23T13:25:50;33.80;95.30
12967;DHT22;6548;49.996;8.238;2022-07-23T13:28:17;35.00;94.50
12967;DHT22;6548;49.996;8.238;2022-07-23T13:30:44;35.50;92.80
12967;DHT22;6548;49.996;8.238;2022-07-23T13:33:10;35.90;92.60
12967;DHT22;6548;49.996;8.238;2022-07-23T13:35:37;35.30;92.50
12967;DHT22;6548;49.996;8.238;2022-07-23T13:38:04;34.70;92.60
12967;DHT22;6548;49.996;8.238;2022-07-23T13:40:30;34.70;92.30
12967;DHT22;6548;49.996;8.238;2022-07-23T13:42:56;34.30;92.90
12967;DHT22;6548;49.996;8.238;2022-07-23T13:45:21;34.00;93.50
12967;DHT22;6548;49.996;8.238;2022-07-23T13:47:47;33.10;93.60
12967;DHT22;6548;49.996;8.238;2022-07-23T13:50:12;33.20;94.50
12967;DHT22;6548;49.996;8.238;2022-07-23T13:52:40;33.50;94.20
12967;DHT22;6548;49.996;8.238;2022-07-23T13:55:06;33.60;93.80
12967;DHT22;6548;49.996;8.238;2022-07-23T13:57:32;34.10;94.10
12967;DHT22;6548;49.996;8.238;2022-07-23T13:59:58;35.20;92.90
12967;DHT22;6548;49.996;8.238;2022-07-23T14:02:24;35.60;91.90
12967;DHT22;6548;49.996;8.238;2022-07-23T14:04:50;36.00;91.30
12967;DHT22;6548;49.996;8.238;2022-07-23T14:07:16;36.60;91.20
12967;DHT22;6548;49.996;8.238;2022-07-23T14:09:42;37.50;90.60
12967;DHT22;6548;49.996;8.238;2022-07-23T14:12:08;37.50;88.50
12967;DHT22;6548;49.996;8.238;2022-07-23T14:14:34;36.00;87.80
12967;DHT22;6548;49.996;8.238;2022-07-23T14:17:00;35.80;89.80
12967;DHT22;6548;49.996;8.238;2022-07-23T14:19:26;33.70;90.90
12967;DHT22;6548;49.996;8.238;2022-07-23T14:21:51;32.90;91.90
12967;DHT22;6548;49.996;8.238;2022-07-23T14:24:17;33.30;92.00
12967;DHT22;6548;49.996;8.238;2022-07-23T14:26:43;33.70;91.90
12967;DHT22;6548;49.996;8.238;2022-07-23T14:29:09;34.70;91.50
12967;DHT22;6548;49.996;8.238;2022-07-23T14:31:34;35.00;90.80
12967;DHT22;6548;49.996;8.238;2022-07-23T14:34:01;35.70;90.40
12967;DHT22;6548;49.996;8.238;2022-07-23T14:36:26;36.70;88.60
12967;DHT22;6548;49.996;8.238;2022-07-23T14:38:52;36.70;87.70
12967;DHT22;6548;49.996;8.238;2022-07-23T14:41:18;37.10;87.20
12967;DHT22;6548;49.996;8.238;2022-07-23T14:43:44;37.40;87.00
12967;DHT22;6548;49.996;8.238;2022-07-23T14:46:11;36.50;86.00
12967;DHT22;6548;49.996;8.238;2022-07-23T14:48:37;36.60;87.20
12967;DHT22;6548;49.996;8.238;2022-07-23T14:51:03;37.00;85.30
12967;DHT22;6548;49.996;8.238;2022-07-23T14:53:29;35.20;84.60
12967;DHT22;6548;49.996;8.238;2022-07-23T14:55:55;33.80;87.60
12967;DHT22;6548;49.996;8.238;2022-07-23T14:58:24;33.60;89.70
12967;DHT22;6548;49.996;8.238;2022-07-23T15:00:50;35.00;88.50
12967;DHT22;6548;49.996;8.238;2022-07-23T15:03:16;35.80;86.90
12967;DHT22;6548;49.996;8.238;2022-07-23T15:05:42;35.30;86.80
12967;DHT22;6548;49.996;8.238;2022-07-23T15:08:08;35.30;85.10
12967;DHT22;6548;49.996;8.238;2022-07-23T15:10:34;35.10;85.10
12967;DHT22;6548;49.996;8.238;2022-07-23T15:12:59;35.20;84.50
12967;DHT22;6548;49.996;8.238;2022-07-23T15:15:25;35.10;84.40
12967;DHT22;6548;49.996;8.238;2022-07-23T15:17:53;34.80;84.20
12967;DHT22;6548;49.996;8.238;2022-07-23T15:20:19;35.30;85.10
12967;DHT22;6548;49.996;8.238;2022-07-23T15:22:44;35.50;83.20
12967;DHT22;6548;49.996;8.238;2022-07-23T15:25:13;36.40;81.80
12967;DHT22;6548;49.996;8.238;2022-07-23T15:27:38;36.20;83.20
12967;DHT22;6548;49.996;8.238;2022-07-23T15:30:04;36.30;83.20
12967;DHT22;6548;49.996;8.238;2022-07-23T15:32:30;36.60;81.80
12967;DHT22;6548;49.996;8.238;2022-07-23T15:34:55;36.10;81.30
12967;DHT22;6548;49.996;8.238;2022-07-23T15:37:22;35.70;81.10
12967;DHT22;6548;49.996;8.238;2022-07-23T15:39:50;34.60;81.40
12967;DHT22;6548;49.996;8.238;2022-07-23T15:42:16;34.00;83.50
12967;DHT22;6548;49.996;8.238;2022-07-23T15:44:42;34.50;82.90
12967;DHT22;6548;49.996;8.238;2022-07-23T15:47:30;35.00;82.30
12967;DHT22;6548;49.996;8.238;2022-07-23T15:49:55;35.60;80.60
12967;DHT22;6548;49.996;8.238;2022-07-23T15:52:21;35.70;78.30
12967;DHT22;6548;49.996;8.238;2022-07-23T15:54:46;35.50;79.00
12967;DHT22;6548;49.996;8.238;2022-07-23T15:57:12;35.10;80.00
12967;DHT22;6548;49.996;8.238;2022-07-23T15:59:37;35.50;79.20
12967;DHT22;6548;49.996;8.238;2022-07-23T16:02:03;35.40;79.50
12967;DHT22;6548;49.996;8.238;2022-07-23T16:04:29;35.30;79.30
12967;DHT22;6548;49.996;8.238;2022-07-23T16:06:56;35.40;78.80
12967;DHT22;6548;49.996;8.238;2022-07-23T16:09:21;35.60;78.60
12967;DHT22;6548;49.996;8.238;2022-07-23T16:11:47;35.70;79.60
12967;DHT22;6548;49.996;8.238;2022-07-23T16:14:12;36.40;77.80
12967;DHT22;6548;49.996;8.238;2022-07-23T16:16:40;35.60;76.80
12967;DHT22;6548;49.996;8.238;2022-07-23T16:19:05;35.70;78.10
12967;DHT22;6548;49.996;8.238;2022-07-23T16:21:31;36.20;77.70
12967;DHT22;6548;49.996;8.238;2022-07-23T16:23:57;36.40;77.40
12967;DHT22;6548;49.996;8.238;2022-07-23T16:26:22;36.60;75.90
12967;DHT22;6548;49.996;8.238;2022-07-23T16:28:48;36.50;75.80
12967;DHT22;6548;49.996;8.238;2022-07-23T16:31:13;36.10;75.40